createdAt,value
2018-12-14T00:04:30.990Z,85.64
2018-12-14T00:14:50.365Z,85.21
2018-12-14T00:25:10.444Z,85.24
2018-12-14T00:35:30.496Z,85.06
2018-12-14T00:45:50.785Z,85.32
2018-12-14T00:56:09.594Z,85.07
2018-12-14T01:06:28.366Z,85.20
2018-12-14T01:16:47.164Z,85.17
2018-12-14T01:27:06.824Z,84.48
2018-12-14T01:37:25.304Z,84.96
2018-12-14T01:47:44.498Z,85.32
2018-12-14T01:58:03.115Z,84.59
2018-12-14T02:08:22.292Z,84.92
2018-12-14T02:18:41.666Z,85.53
2018-12-14T02:29:02.728Z,84.67
2018-12-14T02:39:21.438Z,84.67
2018-12-14T02:49:40.176Z,84.69
2018-12-14T03:00:00.108Z,84.56
2018-12-14T03:10:19.426Z,84.22
2018-12-14T03:20:38.230Z,83.86
2018-12-14T03:30:56.960Z,83.65
2018-12-14T03:41:15.740Z,83.67
2018-12-14T03:51:34.713Z,83.28
2018-12-14T04:01:53.606Z,84.11
2018-12-14T04:12:13.264Z,83.71
2018-12-14T04:22:32.454Z,84.22
2018-12-14T04:32:51.144Z,84.21
2018-12-14T04:43:10.575Z,83.74
2018-12-14T04:53:29.054Z,83.72
2018-12-14T05:03:47.363Z,83.67
2018-12-14T05:14:06.443Z,83.41
2018-12-14T05:24:25.763Z,83.53
2018-12-14T05:34:45.312Z,84.16
2018-12-14T05:45:04.348Z,85.61
2018-12-14T05:55:23.541Z,85.25
2018-12-14T06:05:42.527Z,84.40
2018-12-14T06:16:01.615Z,84.42
2018-12-14T06:26:21.673Z,84.63
2018-12-14T06:36:41.863Z,84.34
2018-12-14T06:47:01.946Z,85.28
2018-12-14T06:57:21.183Z,84.60
2018-12-14T07:07:40.394Z,85.21
2018-12-14T07:18:00.946Z,84.72
2018-12-14T07:28:20.206Z,85.06
2018-12-14T07:38:39.026Z,85.32
2018-12-14T07:48:57.954Z,85.40
2018-12-14T07:59:16.849Z,85.14
2018-12-14T08:09:36.076Z,84.27
2018-12-14T08:19:54.516Z,83.53
2018-12-14T08:30:13.696Z,83.17
2018-12-14T08:40:32.076Z,82.78
2018-12-14T08:50:50.728Z,82.05
2018-12-14T09:01:09.718Z,81.95
2018-12-14T09:11:28.417Z,81.39
2018-12-14T09:21:46.965Z,79.99
2018-12-14T09:32:06.579Z,79.90
2018-12-14T09:43:18.732Z,78.59
2018-12-14T09:53:37.019Z,77.28
2018-12-14T10:04:36.140Z,76.37
2018-12-14T10:14:57.789Z,76.10
2018-12-14T10:25:33.301Z,75.96
2018-12-14T10:35:53.114Z,74.69
2018-12-14T10:46:09.507Z,71.94
2018-12-14T10:56:28.451Z,73.38
2018-12-14T11:06:51.914Z,74.05
2018-12-14T11:17:10.487Z,73.29
2018-12-14T11:27:33.025Z,74.05
2018-12-14T11:37:59.270Z,77.08
2018-12-14T11:48:17.902Z,77.12
2018-12-14T11:58:37.137Z,76.65
2018-12-14T12:08:55.830Z,73.52
2018-12-14T12:19:15.830Z,70.65
2018-12-14T12:29:35.870Z,71.92
2018-12-14T12:39:54.367Z,73.30
2018-12-14T12:50:18.857Z,73.14
2018-12-14T13:00:49.745Z,73.86
2018-12-14T13:11:15.526Z,76.64
2018-12-14T13:22:07.272Z,78.99
2018-12-14T13:32:40.512Z,81.48
2018-12-14T13:56:10.719Z,82.39
2018-12-14T14:05:28.519Z,81.44
2018-12-14T14:16:25.615Z,80.49
2018-12-14T14:26:45.107Z,82.01
2018-12-14T14:37:04.628Z,82.24
2018-12-14T14:47:23.735Z,83.05
2018-12-14T14:57:42.633Z,82.93
2018-12-14T15:08:02.097Z,83.67
2018-12-14T15:18:21.383Z,83.06
2018-12-14T15:28:47.467Z,83.42
2018-12-14T15:39:02.167Z,83.60
2018-12-14T15:49:27.760Z,83.81
2018-12-14T15:59:49.412Z,83.30
2018-12-14T16:10:09.649Z,83.09
2018-12-14T16:20:29.311Z,83.58
2018-12-14T16:30:48.830Z,83.37
2018-12-14T16:41:13.141Z,83.56
2018-12-14T16:51:48.616Z,83.96
2018-12-14T17:01:55.552Z,83.79
2018-12-14T17:12:20.235Z,83.63
2018-12-14T17:22:52.443Z,83.46
2018-12-14T17:33:05.276Z,82.82
2018-12-14T17:43:29.790Z,82.98
2018-12-14T17:53:51.487Z,83.93
2018-12-14T18:04:11.348Z,83.80
2018-12-14T18:14:37.853Z,84.14
2018-12-14T18:25:06.293Z,84.17
2018-12-14T18:35:21.343Z,84.25
2018-12-14T18:57:13.605Z,84.34
2018-12-14T19:07:31.814Z,84.02
2018-12-14T19:17:50.739Z,84.42
2018-12-14T19:28:10.480Z,84.57
2018-12-14T19:38:29.460Z,84.50
2018-12-14T19:48:49.741Z,84.68
2018-12-14T19:59:09.886Z,84.72
2018-12-14T20:09:28.947Z,84.90
2018-12-14T20:19:48.134Z,85.11
2018-12-14T20:30:08.183Z,84.85
2018-12-14T20:40:27.458Z,83.99
2018-12-14T20:50:47.420Z,84.12
2018-12-14T21:01:06.003Z,83.79
2018-12-14T21:11:25.477Z,84.11
2018-12-14T21:21:45.725Z,84.47
2018-12-14T21:32:05.128Z,84.03
2018-12-14T21:42:28.497Z,83.64
2018-12-14T21:52:48.334Z,83.35
2018-12-14T22:03:07.249Z,84.25
2018-12-14T22:13:26.116Z,84.32
2018-12-14T22:23:45.396Z,84.34
2018-12-14T22:34:04.405Z,84.23
2018-12-14T22:44:23.276Z,83.97
2018-12-14T22:54:42.011Z,84.24
2018-12-14T23:05:02.588Z,83.94
2018-12-14T23:15:22.618Z,84.27
2018-12-14T23:25:42.572Z,84.04
2018-12-14T23:36:01.852Z,83.91
2018-12-14T23:46:20.839Z,83.35
2018-12-14T23:56:40.301Z,84.19
